Time;durP1;ratioP1;P1;durP2;ratioP2;P2;SDS_P1;SDS_P2;PMS_P1;PMS_P2;Temp;Humidity;BMP_temperature;BMP_pressure;BME280_temperature;BME280_humidity;BME280_pressure;Samples;Min_cycle;Max_cycle;Signal;HPM_P1;HPM_P2
2024/04/13 00:00:32;;;;;;;1.48;0.70;;;15.10;56.00;;;;;;5379006;26;20113;-70
2024/04/13 00:02:59;;;;;;;0.65;0.60;;;15.10;55.80;;;;;;5378603;26;19996;-71
2024/04/13 00:05:27;;;;;;;0.82;0.60;;;15.10;55.60;;;;;;5381169;26;20000;-76
2024/04/13 00:07:55;;;;;;;0.80;0.47;;;15.00;55.90;;;;;;5350200;26;20453;-71
2024/04/13 00:10:24;;;;;;;1.45;0.68;;;14.90;56.50;;;;;;5378903;26;19996;-70
2024/04/13 00:12:51;;;;;;;1.02;0.93;;;14.90;56.70;;;;;;5379227;26;20000;-77
2024/04/13 00:15:18;;;;;;;1.30;0.73;;;14.90;56.60;;;;;;5378872;26;19992;-76
2024/04/13 00:17:45;;;;;;;0.98;0.90;;;14.80;56.70;;;;;;5349992;26;20073;-76
2024/04/13 00:20:13;;;;;;;0.32;0.30;;;14.80;56.40;;;;;;5380472;26;20320;-70
2024/04/13 00:22:41;;;;;;;0.85;0.55;;;14.90;56.80;;;;;;5380997;26;19996;-76
2024/04/13 00:25:09;;;;;;;0.95;0.88;;;14.80;56.80;;;;;;5379086;26;20000;-76
2024/04/13 00:27:37;;;;;;;2.30;0.65;;;14.80;56.90;;;;;;5379261;26;20011;-70
2024/04/13 00:30:04;;;;;;;0.57;0.57;;;14.70;57.00;;;;;;5379076;26;20000;-71
2024/04/13 00:32:32;;;;;;;1.15;0.47;;;14.60;57.40;;;;;;5378275;26;20391;-71
2024/04/13 00:35:00;;;;;;;1.08;0.30;;;14.60;57.10;;;;;;5380563;26;20345;-76
2024/04/13 00:37:26;;;;;;;0.35;0.22;;;14.60;57.20;;;;;;5380296;26;20380;-70
2024/04/13 00:39:53;;;;;;;0.70;0.60;;;14.50;57.20;;;;;;5380870;26;20008;-76
2024/04/13 00:42:21;;;;;;;0.60;0.45;;;14.50;57.00;;;;;;5379529;26;20000;-75
2024/04/13 00:45:01;;;;;;;0.20;0.20;;;14.40;56.70;;;;;;5378771;26;20015;-76
2024/04/13 00:47:46;;;;;;;1.38;0.55;;;14.30;57.20;;;;;;5352235;26;20518;-76
2024/04/13 00:50:13;;;;;;;0.73;0.50;;;14.10;58.10;;;;;;5378775;26;19992;-76
2024/04/13 00:52:42;;;;;;;1.38;1.10;;;14.10;57.60;;;;;;5377671;26;20032;-76
2024/04/13 00:55:10;;;;;;;1.30;0.68;;;14.10;57.60;;;;;;5378176;26;20333;-76
2024/04/13 00:57:37;;;;;;;0.35;0.28;;;14.10;58.10;;;;;;5380322;26;20008;-76
2024/04/13 01:00:23;;;;;;;1.55;0.60;;;14.10;58.00;;;;;;5348871;26;20337;-76
2024/04/13 01:02:51;;;;;;;7.63;0.60;;;14.10;58.10;;;;;;5377981;26;20074;-71
2024/04/13 01:05:18;;;;;;;1.30;0.82;;;14.10;57.90;;;;;;5378243;26;20369;-71
2024/04/13 01:07:46;;;;;;;0.30;0.30;;;14.10;58.20;;;;;;5379786;26;20000;-71
2024/04/13 01:10:16;;;;;;;0.50;0.47;;;14.10;58.30;;;;;;5377482;26;20065;-71
2024/04/13 01:12:44;;;;;;;1.10;0.77;;;14.10;58.30;;;;;;5379674;26;20008;-76
2024/04/13 01:15:12;;;;;;;1.60;0.82;;;14.00;58.20;;;;;;5377536;26;19996;-75
2024/04/13 01:17:39;;;;;;;0.52;0.40;;;14.00;58.30;;;;;;5379241;26;20403;-76
2024/04/13 01:20:08;;;;;;;1.48;0.93;;;14.00;58.50;;;;;;5377420;26;20024;-71
2024/04/13 01:22:43;;;;;;;1.15;0.85;;;14.00;58.50;;;;;;5378419;26;20107;-71
2024/04/13 01:25:30;;;;;;;0.85;0.60;;;13.90;58.50;;;;;;5378857;26;20388;-75
2024/04/13 01:27:57;;;;;;;1.13;0.60;;;13.90;58.60;;;;;;5380478;26;20000;-71
2024/04/13 01:30:24;;;;;;;0.98;0.60;;;13.90;58.90;;;;;;5379533;26;20779;-77
2024/04/13 01:32:52;;;;;;;0.38;0.35;;;13.80;58.90;;;;;;5348635;26;20004;-71
2024/04/13 01:35:19;;;;;;;1.35;0.47;;;13.80;59.00;;;;;;5380011;26;19996;-71
2024/04/13 01:37:47;;;;;;;1.85;0.85;;;13.80;59.10;;;;;;5379874;26;20019;-71
2024/04/13 01:40:14;;;;;;;1.63;0.65;;;13.70;59.30;;;;;;5378947;26;19996;-76
2024/04/13 01:42:42;;;;;;;1.02;0.77;;;13.70;59.40;;;;;;5376953;26;19997;-75
2024/04/13 01:45:09;;;;;;;0.73;0.30;;;13.60;59.50;;;;;;5377768;26;20031;-71
2024/04/13 01:47:36;;;;;;;0.57;0.28;;;13.60;59.30;;;;;;5379074;26;20058;-71
2024/04/13 01:50:03;;;;;;;1.02;0.55;;;13.70;59.20;;;;;;5379182;26;20001;-76
2024/04/13 01:52:31;;;;;;;1.13;0.70;;;13.60;59.70;;;;;;5379011;26;20000;-71
2024/04/13 01:54:57;;;;;;;0.63;0.52;;;13.60;59.30;;;;;;5379671;26;20007;-75
2024/04/13 01:57:24;;;;;;;1.13;0.47;;;13.50;59.60;;;;;;5379288;26;20069;-76
2024/04/13 01:59:51;;;;;;;1.85;0.93;;;13.50;59.30;;;;;;5379102;26;20070;-71
2024/04/13 02:02:19;;;;;;;1.38;0.95;;;13.50;59.50;;;;;;5378494;26;20011;-75
2024/04/13 02:04:47;;;;;;;0.80;0.57;;;13.50;59.50;;;;;;5377818;26;20000;-71
2024/04/13 02:07:14;;;;;;;0.30;0.30;;;13.40;59.30;;;;;;5376865;26;20469;-71
2024/04/13 02:09:41;;;;;;;0.45;0.38;;;13.40;59.50;;;;;;5377498;26;20011;-75
2024/04/13 02:12:08;;;;;;;1.02;0.77;;;13.40;59.50;;;;;;5377917;26;20422;-76
2024/04/13 02:14:35;;;;;;;0.77;0.65;;;13.40;59.20;;;;;;5379545;26;19997;-71
2024/04/13 02:17:02;;;;;;;1.17;0.63;;;13.40;59.10;;;;;;5379103;26;20000;-75
2024/04/13 02:19:29;;;;;;;0.63;0.57;;;13.40;59.30;;;;;;5379484;26;19996;-71
2024/04/13 02:21:56;;;;;;;0.98;0.75;;;13.30;59.60;;;;;;5378015;26;20004;-71
2024/04/13 02:24:24;;;;;;;1.27;0.45;;;13.40;59.30;;;;;;5347744;26;20000;-71
2024/04/13 02:26:52;;;;;;;2.25;0.95;;;13.30;59.50;;;;;;5378570;26;19996;-75
2024/04/13 02:29:18;;;;;;;0.50;0.50;;;13.20;59.40;;;;;;5378653;26;19997;-76
2024/04/13 02:31:46;;;;;;;0.80;0.63;;;13.20;59.10;;;;;;5377461;26;20004;-72
2024/04/13 02:34:13;;;;;;;0.75;0.52;;;13.20;59.10;;;;;;5378701;26;19996;-71
2024/04/13 02:36:40;;;;;;;0.75;0.68;;;13.10;59.40;;;;;;5378679;26;20012;-71
2024/04/13 02:39:08;;;;;;;0.93;0.60;;;13.10;59.50;;;;;;5376728;26;19996;-71
2024/04/13 02:41:36;;;;;;;1.05;0.60;;;13.00;59.50;;;;;;5378530;26;20028;-73
2024/04/13 02:44:03;;;;;;;0.93;0.63;;;13.10;59.40;;;;;;5378241;26;20007;-75
2024/04/13 02:46:30;;;;;;;2.05;0.93;;;12.90;59.50;;;;;;5378197;26;19996;-71
2024/04/13 02:48:57;;;;;;;1.08;0.60;;;12.90;60.00;;;;;;5378350;26;20077;-74
2024/04/13 02:51:24;;;;;;;0.30;0.30;;;12.80;60.30;;;;;;5377656;26;20333;-75
2024/04/13 02:53:51;;;;;;;0.55;0.40;;;12.80;60.20;;;;;;5379386;26;20407;-72
2024/04/13 02:56:18;;;;;;;0.60;0.47;;;12.80;59.80;;;;;;5379858;26;19996;-75
2024/04/13 02:58:48;;;;;;;0.20;0.20;;;12.80;59.90;;;;;;5381109;26;20000;-75
2024/04/13 03:01:15;;;;;;;0.95;0.65;;;12.80;59.90;;;;;;5379188;26;20346;-71
2024/04/13 03:03:42;;;;;;;0.60;0.60;;;12.70;60.00;;;;;;5381792;26;19996;-71
2024/04/13 03:06:12;;;;;;;1.35;0.65;;;12.70;60.40;;;;;;5381631;26;19996;-76
2024/04/13 03:08:39;;;;;;;0.95;0.75;;;12.70;60.40;;;;;;5380410;26;20008;-75
2024/04/13 03:11:11;;;;;;;5.82;0.47;;;12.60;60.30;;;;;;5381106;26;20011;-71
2024/04/13 03:13:39;;;;;;;0.40;0.32;;;12.70;60.50;;;;;;5380361;26;20387;-71
2024/04/13 03:16:24;;;;;;;1.65;0.82;;;12.60;60.50;;;;;;5349864;26;20399;-71
2024/04/13 03:18:52;;;;;;;1.55;0.70;;;12.60;61.00;;;;;;5379726;26;20006;-72
2024/04/13 03:21:19;;;;;;;0.68;0.40;;;12.60;61.10;;;;;;5380815;26;20506;-71
2024/04/13 03:23:46;;;;;;;0.25;0.25;;;12.60;61.60;;;;;;5380732;26;19996;-75
2024/04/13 03:26:13;;;;;;;1.02;0.68;;;12.60;61.70;;;;;;5381160;26;20039;-75
2024/04/13 03:28:40;;;;;;;0.60;0.40;;;12.50;62.20;;;;;;5379560;26;20011;-71
2024/04/13 03:31:07;;;;;;;0.82;0.50;;;12.50;62.20;;;;;;5378314;26;20502;-76
2024/04/13 03:33:34;;;;;;;1.33;0.80;;;12.50;62.10;;;;;;5378792;26;19996;-71
2024/04/13 03:36:04;;;;;;;1.02;0.57;;;12.50;62.10;;;;;;5380856;26;20000;-76
2024/04/13 03:38:31;;;;;;;2.25;1.27;;;12.50;62.10;;;;;;5350380;26;20066;-71
2024/04/13 03:41:16;;;;;;;1.02;0.47;;;12.50;61.80;;;;;;5349411;26;20000;-74
2024/04/13 03:43:43;;;;;;;0.40;0.40;;;12.50;61.50;;;;;;5381071;26;20070;-74
2024/04/13 03:46:10;;;;;;;2.92;0.88;;;12.40;61.60;;;;;;5380782;26;20503;-76
2024/04/13 03:48:41;;;;;;;0.98;0.80;;;12.40;61.60;;;;;;5378950;26;20069;-75
2024/04/13 03:51:10;;;;;;;0.52;0.45;;;12.40;61.70;;;;;;5378504;26;20008;-71
2024/04/13 03:53:37;;;;;;;2.92;1.33;;;12.40;61.50;;;;;;5349741;26;19996;-71
2024/04/13 03:56:05;;;;;;;0.20;0.20;;;12.40;61.20;;;;;;5349567;26;20436;-75
2024/04/13 03:58:33;;;;;;;0.63;0.50;;;12.30;61.80;;;;;;5378707;26;20000;-71
2024/04/13 04:01:01;;;;;;;0.70;0.50;;;12.30;62.10;;;;;;5380252;26;20007;-75
2024/04/13 04:03:27;;;;;;;1.38;0.95;;;12.20;62.10;;;;;;5379209;26;20439;-71
2024/04/13 04:05:54;;;;;;;0.52;0.40;;;12.30;62.40;;;;;;5380813;26;19996;-75
2024/04/13 04:08:21;;;;;;;1.05;0.30;;;12.30;62.50;;;;;;5378995;26;20467;-72
2024/04/13 04:10:48;;;;;;;1.25;0.65;;;12.20;62.20;;;;;;5377995;26;20077;-71
2024/04/13 04:13:14;;;;;;;0.73;0.50;;;12.30;62.40;;;;;;5380606;26;20468;-71
2024/04/13 04:16:00;;;;;;;1.05;0.57;;;12.20;62.50;;;;;;5378600;26;20448;-71
2024/04/13 04:18:28;;;;;;;0.80;0.60;;;12.20;62.50;;;;;;5378611;26;19996;-71
2024/04/13 04:20:55;;;;;;;0.68;0.45;;;12.20;62.60;;;;;;5379626;26;20046;-76
2024/04/13 04:23:22;;;;;;;2.78;1.35;;;12.20;62.50;;;;;;5380285;26;19992;-75
2024/04/13 04:25:49;;;;;;;1.63;0.55;;;12.20;62.30;;;;;;5378700;26;20387;-75
2024/04/13 04:28:16;;;;;;;0.43;0.40;;;12.20;62.30;;;;;;5378596;26;20070;-76
2024/04/13 04:30:46;;;;;;;1.95;1.08;;;12.10;62.50;;;;;;5379160;26;20460;-76
2024/04/13 04:33:13;;;;;;;1.63;0.60;;;12.20;62.50;;;;;;5377495;26;20035;-75
2024/04/13 04:35:40;;;;;;;3.42;0.80;;;12.10;62.80;;;;;;5377978;26;19997;-71
2024/04/13 04:38:07;;;;;;;1.67;1.08;;;12.10;62.60;;;;;;5379954;26;20415;-75
2024/04/13 04:40:37;;;;;;;1.42;0.77;;;12.10;62.60;;;;;;5377878;26;19996;-75
2024/04/13 04:43:04;;;;;;;3.15;0.80;;;12.20;62.60;;;;;;5379984;26;20000;-71
2024/04/13 04:45:34;;;;;;;0.68;0.40;;;12.20;62.50;;;;;;5380106;26;20007;-71
2024/04/13 04:48:01;;;;;;;2.50;1.23;;;12.30;62.50;;;;;;5380074;26;20440;-72
2024/04/13 04:50:27;;;;;;;0.63;0.43;;;12.30;62.30;;;;;;5348749;26;20000;-75
2024/04/13 04:52:54;;;;;;;1.13;0.55;;;12.30;62.30;;;;;;5377667;26;20003;-71
2024/04/13 04:55:20;;;;;;;2.67;0.68;;;12.30;62.40;;;;;;5377651;26;19996;-71
2024/04/13 04:57:47;;;;;;;0.90;0.63;;;12.40;62.20;;;;;;5377465;26;20396;-75
2024/04/13 05:00:14;;;;;;;1.35;0.77;;;12.40;61.90;;;;;;5376511;26;19992;-71
2024/04/13 05:02:42;;;;;;;1.00;0.60;;;12.40;62.10;;;;;;5348823;26;20069;-74
2024/04/13 05:05:09;;;;;;;0.65;0.47;;;12.50;62.30;;;;;;5378255;26;20000;-71
2024/04/13 05:07:36;;;;;;;1.73;0.98;;;12.40;62.20;;;;;;5377811;26;20433;-72
2024/04/13 05:10:03;;;;;;;1.33;0.55;;;12.50;62.50;;;;;;5379853;26;20007;-71
2024/04/13 05:12:29;;;;;;;0.40;0.30;;;12.50;62.80;;;;;;5344873;26;20445;-71
2024/04/13 05:14:56;;;;;;;0.65;0.47;;;12.50;62.90;;;;;;5342159;26;19997;-72
2024/04/13 05:17:23;;;;;;;1.25;0.47;;;12.60;63.20;;;;;;5342507;26;20430;-75
2024/04/13 05:19:49;;;;;;;1.17;0.68;;;12.60;63.10;;;;;;5343230;26;19993;-75
2024/04/13 05:22:16;;;;;;;0.32;0.32;;;12.60;63.40;;;;;;5375960;26;20073;-71
2024/04/13 05:24:43;;;;;;;1.40;0.63;;;12.70;63.40;;;;;;5379906;26;20455;-75
2024/04/13 05:27:10;;;;;;;1.75;1.00;;;12.70;63.40;;;;;;5379251;26;20000;-75
2024/04/13 05:29:39;;;;;;;2.20;1.02;;;12.80;63.80;;;;;;5378158;26;19996;-72
2024/04/13 05:32:07;;;;;;;1.90;0.75;;;12.80;64.00;;;;;;5378635;26;20039;-75
2024/04/13 05:34:34;;;;;;;1.98;1.20;;;12.80;64.20;;;;;;5377785;26;20007;-72
2024/04/13 05:37:01;;;;;;;1.50;0.93;;;12.90;64.70;;;;;;5377273;26;19992;-72
2024/04/13 05:39:30;;;;;;;2.88;1.35;;;12.90;64.90;;;;;;5379455;26;19996;-76
2024/04/13 05:41:57;;;;;;;1.55;0.52;;;12.90;65.80;;;;;;5378684;26;20012;-74
2024/04/13 05:44:24;;;;;;;1.55;1.13;;;13.00;64.70;;;;;;5377192;26;20069;-75
2024/04/13 05:46:51;;;;;;;1.20;0.55;;;13.10;65.20;;;;;;5376875;26;20329;-71
2024/04/13 05:49:18;;;;;;;3.63;1.30;;;13.10;65.00;;;;;;5377717;26;20012;-71
2024/04/13 05:51:48;;;;;;;1.50;0.93;;;13.20;65.60;;;;;;5378627;26;20000;-71
2024/04/13 05:54:15;;;;;;;1.98;1.08;;;13.30;65.20;;;;;;5377564;26;20028;-76
2024/04/13 05:56:42;;;;;;;3.25;1.95;;;13.40;65.20;;;;;;5378988;26;20000;-75
2024/04/13 05:59:09;;;;;;;1.52;1.02;;;13.40;65.00;;;;;;5379053;26;20346;-75
2024/04/13 06:01:36;;;;;;;2.20;1.42;;;13.50;65.10;;;;;;5378431;26;20297;-76
2024/04/13 06:04:03;;;;;;;0.80;0.77;;;13.50;65.50;;;;;;5378713;26;20039;-77
2024/04/13 06:06:30;;;;;;;2.20;1.27;;;13.60;65.60;;;;;;5378810;26;20008;-75
2024/04/13 06:08:57;;;;;;;3.17;2.47;;;13.70;65.70;;;;;;5377107;26;20323;-76
2024/04/13 06:11:24;;;;;;;1.67;0.85;;;13.70;66.00;;;;;;5347494;26;20000;-71
2024/04/13 06:13:50;;;;;;;1.02;0.73;;;13.80;65.70;;;;;;5378802;26;20000;-71
2024/04/13 06:16:17;;;;;;;1.88;1.15;;;13.90;65.60;;;;;;5378652;26;19996;-76
2024/04/13 06:18:44;;;;;;;3.30;1.20;;;14.10;65.40;;;;;;5377248;26;20011;-71
2024/04/13 06:21:11;;;;;;;1.48;1.25;;;14.10;65.50;;;;;;5378242;26;20070;-71
2024/04/13 06:23:38;;;;;;;0.85;0.45;;;14.20;65.40;;;;;;5378179;26;20007;-71
2024/04/13 06:26:06;;;;;;;1.95;1.63;;;14.30;65.50;;;;;;5377738;26;19996;-71
2024/04/13 06:28:33;;;;;;;1.38;1.10;;;14.40;64.80;;;;;;5376140;26;19992;-76
2024/04/13 06:31:00;;;;;;;3.22;1.17;;;14.60;64.90;;;;;;5375747;26;20008;-71
2024/04/13 06:33:27;;;;;;;1.38;0.77;;;14.70;64.30;;;;;;5378540;26;20062;-71
2024/04/13 06:35:54;;;;;;;2.53;1.33;;;14.80;63.80;;;;;;5376850;26;20044;-72
2024/04/13 06:38:26;;;;;;;1.70;1.30;;;14.90;64.00;;;;;;5378527;26;20007;-75
2024/04/13 06:41:11;;;;;;;1.80;1.20;;;15.00;63.90;;;;;;5377987;26;20007;-72
2024/04/13 06:43:38;;;;;;;1.45;0.75;;;15.10;64.20;;;;;;5377974;26;20000;-77
2024/04/13 06:46:07;;;;;;;1.10;0.52;;;15.20;63.60;;;;;;5378031;26;20011;-71
2024/04/13 06:48:35;;;;;;;2.25;0.60;;;15.30;63.90;;;;;;5378332;26;19997;-71
2024/04/13 06:51:03;;;;;;;0.55;0.50;;;15.40;63.50;;;;;;5375968;26;20004;-76
2024/04/13 06:53:29;;;;;;;2.67;0.85;;;15.60;63.30;;;;;;5376296;26;19996;-75
2024/04/13 06:55:56;;;;;;;2.08;1.63;;;15.70;63.60;;;;;;5376313;26;20031;-71
2024/04/13 06:58:23;;;;;;;0.90;0.60;;;15.90;63.80;;;;;;5378065;26;19996;-71
2024/04/13 07:00:57;;;;;;;1.85;1.38;;;15.90;63.50;;;;;;5377097;26;19997;-76
2024/04/13 07:03:24;;;;;;;0.95;0.73;;;16.10;62.80;;;;;;5375924;26;20233;-71
2024/04/13 07:06:04;;;;;;;1.58;1.00;;;16.30;62.20;;;;;;5376173;26;20000;-71
2024/04/13 07:08:31;;;;;;;1.65;1.08;;;16.50;61.90;;;;;;5376947;26;19997;-70
2024/04/13 07:11:00;;;;;;;1.17;0.75;;;16.60;61.20;;;;;;5353581;26;20008;-76
2024/04/13 07:13:27;;;;;;;1.85;0.98;;;16.80;61.10;;;;;;5374951;26;19992;-71
2024/04/13 07:15:55;;;;;;;2.45;1.35;;;17.00;60.50;;;;;;5355038;26;20009;-76
2024/04/13 07:18:22;;;;;;;1.80;0.88;;;17.30;60.10;;;;;;5376516;26;20004;-71
2024/04/13 07:20:49;;;;;;;1.70;1.25;;;17.70;59.70;;;;;;5368732;26;19996;-71
2024/04/13 07:23:16;;;;;;;1.45;0.75;;;18.10;59.00;;;;;;5372093;26;19992;-75
2024/04/13 07:25:44;;;;;;;0.90;0.60;;;18.50;57.70;;;;;;5341106;26;20011;-76
2024/04/13 07:28:11;;;;;;;0.90;0.80;;;19.00;56.60;;;;;;5342591;26;20004;-71
2024/04/13 07:30:38;;;;;;;1.88;0.77;;;19.50;55.30;;;;;;5361624;26;20008;-74
2024/04/13 07:33:05;;;;;;;1.00;0.65;;;20.10;54.10;;;;;;5342409;26;20016;-71
2024/04/13 07:35:32;;;;;;;1.02;0.88;;;20.60;52.60;;;;;;5358688;26;20007;-71
2024/04/13 07:37:58;;;;;;;1.67;1.02;;;21.20;51.70;;;;;;5345884;26;20043;-76
2024/04/13 07:40:25;;;;;;;1.42;0.75;;;21.70;49.00;;;;;;5358486;26;20001;-76
2024/04/13 07:42:52;;;;;;;1.52;0.90;;;22.20;48.00;;;;;;5353974;26;20078;-71
2024/04/13 07:45:18;;;;;;;2.53;1.13;;;22.70;46.60;;;;;;5347725;26;19997;-71
2024/04/13 07:47:45;;;;;;;0.40;0.40;;;23.30;45.30;;;;;;5381076;26;19996;-71
2024/04/13 07:50:12;;;;;;;0.60;0.43;;;23.70;44.00;;;;;;5377996;26;19996;-76
2024/04/13 07:52:39;;;;;;;2.20;0.93;;;24.20;39.90;;;;;;5380986;26;20350;-76
2024/04/13 07:55:06;;;;;;;1.17;0.70;;;24.70;39.50;;;;;;5379056;26;20091;-72
2024/04/13 07:57:33;;;;;;;0.50;0.45;;;24.90;39.30;;;;;;5374400;26;19992;-76
2024/04/13 08:00:00;;;;;;;1.55;0.65;;;25.40;38.40;;;;;;5344131;26;19997;-76
2024/04/13 08:02:27;;;;;;;0.70;0.43;;;25.60;37.80;;;;;;5353260;26;20407;-76
2024/04/13 08:04:54;;;;;;;1.42;0.77;;;25.80;37.20;;;;;;5379062;26;20418;-76
2024/04/13 08:07:20;;;;;;;0.98;0.55;;;25.80;36.10;;;;;;5370265;26;19992;-71
2024/04/13 08:09:47;;;;;;;1.08;0.93;;;25.80;35.60;;;;;;5380618;26;19996;-71
2024/04/13 08:12:17;;;;;;;1.65;0.40;;;25.50;36.00;;;;;;5377359;26;20004;-76
2024/04/13 08:14:44;;;;;;;1.58;0.77;;;25.50;35.60;;;;;;5379846;26;20396;-72
2024/04/13 08:17:11;;;;;;;2.58;0.60;;;25.70;36.20;;;;;;5380264;26;20073;-72
2024/04/13 08:19:38;;;;;;;1.33;0.68;;;26.10;35.90;;;;;;5380382;26;20364;-76
2024/04/13 08:22:07;;;;;;;1.05;0.73;;;26.70;34.80;;;;;;5377802;26;20015;-76
2024/04/13 08:24:34;;;;;;;0.50;0.50;;;27.00;34.50;;;;;;5378800;26;20077;-72
2024/04/13 08:27:01;;;;;;;1.85;0.95;;;27.60;33.40;;;;;;5380011;26;19996;-72
2024/04/13 08:29:28;;;;;;;0.80;0.77;;;28.20;32.80;;;;;;5378848;26;19992;-71
2024/04/13 08:31:56;;;;;;;1.83;0.73;;;28.80;31.00;;;;;;5376985;26;19997;-72
2024/04/13 08:34:24;;;;;;;2.15;0.70;;;29.20;30.00;;;;;;5380280;26;20065;-72
2024/04/13 08:36:51;;;;;;;0.70;0.70;;;29.70;28.70;;;;;;5378021;26;20015;-72
2024/04/13 08:39:19;;;;;;;0.80;0.60;;;30.40;27.80;;;;;;5380396;26;19993;-75
2024/04/13 08:42:38;;;;;;;0.30;0.30;;;30.80;26.70;;;;;;5348291;26;20510;-75
2024/04/13 08:45:25;;;;;;;1.52;0.95;;;31.20;26.20;;;;;;5349425;26;20031;-75
2024/04/13 08:47:53;;;;;;;1.25;0.70;;;31.50;24.90;;;;;;5378275;26;20069;-76
2024/04/13 08:50:21;;;;;;;0.80;0.80;;;32.00;25.10;;;;;;5371871;26;20032;-75
2024/04/13 08:52:51;;;;;;;0.93;0.57;;;32.50;23.70;;;;;;5362120;26;19996;-74
2024/04/13 08:55:20;;;;;;;0.52;0.50;;;32.90;23.90;;;;;;5355558;26;20001;-72
2024/04/13 08:57:47;;;;;;;2.10;0.63;;;33.40;23.10;;;;;;5378150;26;19996;-75
2024/04/13 09:00:19;;;;;;;0.82;0.77;;;33.90;22.40;;;;;;5377763;26;19996;-75
2024/04/13 09:02:46;;;;;;;0.82;0.60;;;34.40;22.10;;;;;;5378225;26;20000;-75
2024/04/13 09:05:15;;;;;;;1.15;0.50;;;34.90;21.40;;;;;;5380029;26;20011;-75
2024/04/13 09:07:43;;;;;;;2.83;1.20;;;35.40;21.20;;;;;;5379946;26;20008;-73
2024/04/13 09:10:12;;;;;;;1.52;0.65;;;35.80;20.90;;;;;;5377971;26;20322;-73
2024/04/13 09:12:38;;;;;;;4.28;0.98;;;36.50;20.10;;;;;;5379505;26;20000;-75
2024/04/13 09:15:07;;;;;;;0.98;0.80;;;37.20;18.70;;;;;;5380087;26;20011;-72
2024/04/13 09:17:34;;;;;;;2.20;1.42;;;37.80;18.00;;;;;;5378068;26;20000;-75
2024/04/13 09:20:07;;;;;;;1.40;0.93;;;38.30;17.80;;;;;;5378336;26;20011;-72
2024/04/13 09:22:36;;;;;;;1.48;1.38;;;38.50;17.60;;;;;;5377703;26;20069;-73
2024/04/13 09:25:03;;;;;;;0.88;0.70;;;39.00;17.70;;;;;;5379824;26;20326;-75
2024/04/13 09:27:31;;;;;;;1.20;0.80;;;39.30;16.60;;;;;;5379512;26;20390;-73
2024/04/13 09:30:17;;;;;;;1.90;1.17;;;39.30;16.70;;;;;;5378084;26;20010;-76
2024/04/13 09:32:43;;;;;;;1.58;0.90;;;39.40;16.40;;;;;;5377645;26;20041;-72
2024/04/13 09:35:29;;;;;;;0.88;0.70;;;39.50;16.00;;;;;;5379393;26;20011;-72
2024/04/13 09:38:16;;;;;;;0.50;0.50;;;39.80;16.10;;;;;;5367831;26;20422;-75
2024/04/13 09:40:43;;;;;;;0.60;0.60;;;40.30;15.90;;;;;;5371351;26;20028;-74
2024/04/13 09:43:10;;;;;;;0.82;0.82;;;40.80;15.70;;;;;;5374112;26;20078;-76
2024/04/13 09:46:15;;;;;;;1.15;0.70;;;41.10;14.70;;;;;;5360626;26;20005;-72
2024/04/13 09:48:41;;;;;;;2.20;1.27;;;41.50;14.40;;;;;;5344115;26;20001;-73
2024/04/13 09:51:08;;;;;;;0.70;0.70;;;42.10;14.50;;;;;;5369102;26;20012;-75
2024/04/13 09:53:36;;;;;;;1.13;0.82;;;42.70;13.80;;;;;;5377346;26;19996;-75
2024/04/13 09:56:04;;;;;;;0.98;0.80;;;43.30;12.60;;;;;;5378852;26;20017;-75
2024/04/13 09:58:32;;;;;;;2.55;1.23;;;43.70;12.70;;;;;;5366450;26;20001;-76
2024/04/13 10:01:02;;;;;;;1.30;0.82;;;44.20;12.40;;;;;;5340876;26;20001;-73
2024/04/13 10:03:29;;;;;;;1.27;1.17;;;44.60;11.90;;;;;;5341678;26;20000;-73
2024/04/13 10:05:56;;;;;;;1.45;1.02;;;44.90;11.60;;;;;;5345074;26;20007;-76
2024/04/13 10:08:24;;;;;;;1.17;0.88;;;45.30;12.00;;;;;;5363410;26;19993;-76
2024/04/13 10:10:53;;;;;;;3.80;1.65;;;46.10;11.70;;;;;;5341909;26;20087;-73
2024/04/13 10:13:57;;;;;;;0.85;0.85;;;46.10;9.90;;;;;;5335810;26;20437;-76
2024/04/13 10:16:27;;;;;;;1.20;1.15;;;46.10;10.00;;;;;;5345743;26;20441;-73
2024/04/13 10:18:55;;;;;;;1.15;1.00;;;46.30;10.10;;;;;;5366349;26;20022;-74
2024/04/13 10:21:23;;;;;;;1.13;1.00;;;46.70;9.70;;;;;;5368219;26;20532;-73
2024/04/13 10:23:50;;;;;;;1.70;1.52;;;47.30;9.60;;;;;;5371124;26;20015;-73
2024/04/13 10:26:36;;;;;;;0.90;0.90;;;47.20;9.40;;;;;;5367427;26;20003;-76
2024/04/13 10:29:03;;;;;;;3.67;1.85;;;47.50;9.60;;;;;;5367624;26;20321;-73
2024/04/13 10:31:33;;;;;;;0.90;0.90;;;47.90;9.00;;;;;;5370553;26;20012;-76
2024/04/13 10:34:00;;;;;;;1.10;1.00;;;48.30;8.50;;;;;;5344231;26;20056;-76
2024/04/13 10:36:30;;;;;;;1.30;1.20;;;48.50;8.60;;;;;;5343822;26;20709;-72
2024/04/13 10:38:58;;;;;;;1.55;1.35;;;48.70;8.80;;;;;;5359532;26;20004;-76
2024/04/13 10:41:40;;;;;;;1.10;1.00;;;48.50;8.20;;;;;;5345825;26;20011;-76
2024/04/13 10:44:09;;;;;;;1.25;1.10;;;48.20;8.70;;;;;;5373904;26;20468;-73
2024/04/13 10:46:35;;;;;;;1.45;1.35;;;47.80;8.10;;;;;;5346889;26;20000;-72
2024/04/13 10:49:04;;;;;;;16.95;1.83;;;47.90;8.20;;;;;;5374992;26;20011;-76
2024/04/13 10:51:32;;;;;;;1.17;1.08;;;48.40;8.90;;;;;;5341074;26;19997;-72
2024/04/13 10:54:00;;;;;;;1.05;0.98;;;49.10;7.90;;;;;;5360584;26;20071;-76
2024/04/13 10:56:27;;;;;;;1.17;1.08;;;49.70;7.70;;;;;;5378124;26;19997;-76
2024/04/13 10:58:56;;;;;;;1.30;1.20;;;49.60;7.60;;;;;;5376825;26;20000;-76
2024/04/13 11:01:23;;;;;;;1.10;1.00;;;49.90;7.40;;;;;;5375782;26;20007;-76
2024/04/13 11:04:00;;;;;;;2.28;2.00;;;50.50;7.50;;;;;;5337829;26;20000;-72
2024/04/13 11:06:28;;;;;;;1.50;1.40;;;50.70;6.80;;;;;;5340578;26;20498;-73
2024/04/13 11:08:55;;;;;;;1.50;1.40;;;51.00;8.00;;;;;;5352490;26;20000;-76
2024/04/13 11:11:21;;;;;;;2.70;1.77;;;51.10;7.70;;;;;;5362503;26;20000;-73
2024/04/13 11:13:48;;;;;;;1.63;1.35;;;51.40;6.80;;;;;;5351309;26;19997;-76
2024/04/13 11:16:15;;;;;;;1.70;1.50;;;52.00;7.00;;;;;;5366941;26;20081;-76
2024/04/13 11:18:42;;;;;;;1.73;1.63;;;52.20;6.30;;;;;;5369068;26;20012;-76
2024/04/13 11:21:12;;;;;;;1.90;1.70;;;52.60;6.10;;;;;;5344804;26;20182;-76
2024/04/13 11:23:39;;;;;;;1.70;1.60;;;52.40;5.70;;;;;;5375246;26;20074;-73
2024/04/13 11:26:06;;;;;;;2.20;1.90;;;51.50;5.50;;;;;;5343660;26;20005;-76
2024/04/13 11:28:33;;;;;;;2.30;1.88;;;51.80;5.90;;;;;;5348538;26;20337;-73
2024/04/13 11:31:01;;;;;;;2.75;2.45;;;52.20;5.50;;;;;;5374292;26;20078;-74
2024/04/13 11:33:30;;;;;;;1.48;1.38;;;52.30;5.90;;;;;;5354295;26;20000;-76
2024/04/13 11:35:57;;;;;;;2.08;1.88;;;52.70;6.10;;;;;;5352689;26;20012;-72
2024/04/13 11:38:26;;;;;;;1.70;1.50;;;53.40;6.30;;;;;;5389171;26;19997;-73
2024/04/13 11:40:55;;;;;;;2.35;2.15;;;53.80;6.00;;;;;;5372644;26;20449;-76
2024/04/13 11:43:24;;;;;;;1.90;1.70;;;54.30;5.90;;;;;;5348360;26;20003;-73
2024/04/13 11:45:51;;;;;;;2.67;2.40;;;54.40;5.70;;;;;;5343190;26;19996;-77
2024/04/13 11:48:18;;;;;;;1.92;1.75;;;54.00;6.20;;;;;;5345693;26;20053;-73
2024/04/13 11:50:48;;;;;;;2.38;2.17;;;53.90;5.70;;;;;;5390360;26;20306;-75
2024/04/13 11:53:15;;;;;;;2.67;2.22;;;54.30;5.80;;;;;;5380427;26;20085;-73
2024/04/13 11:55:41;;;;;;;2.40;2.20;;;54.80;5.60;;;;;;5380914;26;20530;-75
2024/04/13 11:58:08;;;;;;;2.28;2.05;;;55.20;4.70;;;;;;5363490;26;20012;-76
2024/04/13 12:00:34;;;;;;;2.60;2.40;;;55.40;4.90;;;;;;5383207;26;20011;-76
2024/04/13 12:03:01;;;;;;;2.88;2.55;;;55.40;4.70;;;;;;5346138;26;20025;-73
2024/04/13 12:05:28;;;;;;;2.88;2.58;;;55.40;4.90;;;;;;5354402;26;19996;-76
2024/04/13 12:07:55;;;;;;;3.72;3.03;;;55.80;4.60;;;;;;5345748;26;20008;-73
2024/04/13 12:10:22;;;;;;;2.70;2.47;;;56.10;5.00;;;;;;5372259;26;19997;-73
2024/04/13 12:12:49;;;;;;;3.10;2.80;;;56.00;4.90;;;;;;5345271;26;20504;-73
2024/04/13 12:15:16;;;;;;;3.25;2.95;;;56.30;5.00;;;;;;5369486;26;19992;-73
2024/04/13 12:17:43;;;;;;;3.20;2.90;;;57.00;5.00;;;;;;5377655;26;20004;-75
2024/04/13 12:20:10;;;;;;;3.45;2.92;;;57.40;4.50;;;;;;5349605;26;20432;-76
2024/04/13 12:22:37;;;;;;;2.72;2.53;;;57.40;4.20;;;;;;5351031;26;20001;-76
2024/04/13 12:25:03;;;;;;;3.25;2.95;;;56.80;4.60;;;;;;5363059;26;20011;-76
2024/04/13 12:27:30;;;;;;;3.00;2.70;;;57.10;4.80;;;;;;5386857;26;20865;-76
2024/04/13 12:29:57;;;;;;;3.50;3.20;;;56.90;4.50;;;;;;5316959;26;19997;-77
2024/04/13 12:32:24;;;;;;;3.60;3.30;;;56.70;4.60;;;;;;5366535;26;20004;-74
2024/04/13 12:34:51;;;;;;;3.17;2.88;;;56.50;4.60;;;;;;5378228;26;20073;-73
2024/04/13 12:37:18;;;;;;;3.10;2.80;;;56.40;4.60;;;;;;5379924;26;19996;-74
2024/04/13 12:39:44;;;;;;;3.03;2.72;;;56.40;4.40;;;;;;5368238;26;20078;-73
2024/04/13 12:42:13;;;;;;;3.53;3.22;;;56.50;4.90;;;;;;5344127;26;20012;-76
2024/04/13 12:44:41;;;;;;;3.25;2.95;;;56.70;4.20;;;;;;5345211;26;20016;-73
2024/04/13 12:47:09;;;;;;;3.50;3.20;;;56.90;4.20;;;;;;5371590;26;20001;-73
2024/04/13 12:49:36;;;;;;;3.38;3.08;;;56.90;4.30;;;;;;5370671;26;20491;-76
2024/04/13 12:52:03;;;;;;;3.33;3.03;;;57.10;4.50;;;;;;5377504;26;20457;-73
2024/04/13 12:54:29;;;;;;;3.75;3.45;;;57.00;4.80;;;;;;5402086;26;20011;-73